sensor_id;sensor_type;location;lat;lon;timestamp;temperature;humidity
76102;SHT30;64830;46.910;6.354;2023-12-20T00:01:17;4.62;81.58
76102;SHT30;64830;46.910;6.354;2023-12-20T00:03:42;4.67;81.40
76102;SHT30;64830;46.910;6.354;2023-12-20T00:06:08;4.68;81.71
76102;SHT30;64830;46.910;6.354;2023-12-20T00:08:33;4.71;81.58
76102;SHT30;64830;46.910;6.354;2023-12-20T00:10:58;4.72;81.72
76102;SHT30;64830;46.910;6.354;2023-12-20T00:13:24;4.75;82.06
76102;SHT30;64830;46.910;6.354;2023-12-20T00:15:49;4.76;81.95
76102;SHT30;64830;46.910;6.354;2023-12-20T00:18:15;4.79;81.98
76102;SHT30;64830;46.910;6.354;2023-12-20T00:20:40;4.79;82.29
76102;SHT30;64830;46.910;6.354;2023-12-20T00:23:05;4.82;82.40
76102;SHT30;64830;46.910;6.354;2023-12-20T00:25:33;4.82;82.75
76102;SHT30;64830;46.910;6.354;2023-12-20T00:27:58;4.85;82.56
76102;SHT30;64830;46.910;6.354;2023-12-20T00:30:24;4.83;82.50
76102;SHT30;64830;46.910;6.354;2023-12-20T00:32:49;4.86;82.47
76102;SHT30;64830;46.910;6.354;2023-12-20T00:35:16;4.88;82.56
76102;SHT30;64830;46.910;6.354;2023-12-20T00:37:43;4.92;82.47
76102;SHT30;64830;46.910;6.354;2023-12-20T00:40:09;4.93;82.41
76102;SHT30;64830;46.910;6.354;2023-12-20T00:42:34;4.92;82.53
76102;SHT30;64830;46.910;6.354;2023-12-20T00:45:01;4.93;82.12
76102;SHT30;64830;46.910;6.354;2023-12-20T00:47:27;4.89;82.06
76102;SHT30;64830;46.910;6.354;2023-12-20T00:49:53;4.93;81.92
76102;SHT30;64830;46.910;6.354;2023-12-20T00:52:18;4.89;82.14
76102;SHT30;64830;46.910;6.354;2023-12-20T00:54:44;4.89;82.27
76102;SHT30;64830;46.910;6.354;2023-12-20T00:57:10;4.88;82.58
76102;SHT30;64830;46.910;6.354;2023-12-20T00:59:35;4.88;82.68
76102;SHT30;64830;46.910;6.354;2023-12-20T01:02:01;4.90;82.58
76102;SHT30;64830;46.910;6.354;2023-12-20T01:04:27;4.93;82.52
76102;SHT30;64830;46.910;6.354;2023-12-20T01:06:52;4.95;82.64
76102;SHT30;64830;46.910;6.354;2023-12-20T01:09:18;4.95;82.96
76102;SHT30;64830;46.910;6.354;2023-12-20T01:11:44;4.93;82.84
76102;SHT30;64830;46.910;6.354;2023-12-20T01:14:09;4.92;83.14
76102;SHT30;64830;46.910;6.354;2023-12-20T01:16:35;4.88;83.97
76102;SHT30;64830;46.910;6.354;2023-12-20T01:19:00;4.83;85.13
76102;SHT30;64830;46.910;6.354;2023-12-20T01:21:25;4.81;85.04
76102;SHT30;64830;46.910;6.354;2023-12-20T01:23:51;4.85;84.67
76102;SHT30;64830;46.910;6.354;2023-12-20T01:26:16;4.86;84.51
76102;SHT30;64830;46.910;6.354;2023-12-20T01:28:42;4.89;84.65
76102;SHT30;64830;46.910;6.354;2023-12-20T01:31:08;4.92;84.38
76102;SHT30;64830;46.910;6.354;2023-12-20T01:33:33;4.93;84.78
76102;SHT30;64830;46.910;6.354;2023-12-20T01:35:59;4.95;85.23
76102;SHT30;64830;46.910;6.354;2023-12-20T01:38:25;4.96;85.54
76102;SHT30;64830;46.910;6.354;2023-12-20T01:40:50;4.95;85.67
76102;SHT30;64830;46.910;6.354;2023-12-20T01:43:16;4.96;85.82
76102;SHT30;64830;46.910;6.354;2023-12-20T01:45:41;5.01;85.88
76102;SHT30;64830;46.910;6.354;2023-12-20T01:48:08;5.01;85.86
76102;SHT30;64830;46.910;6.354;2023-12-20T01:50:35;4.96;86.58
76102;SHT30;64830;46.910;6.354;2023-12-20T01:53:02;4.95;85.83
76102;SHT30;64830;46.910;6.354;2023-12-20T01:55:31;4.95;85.82
76102;SHT30;64830;46.910;6.354;2023-12-20T01:57:57;4.95;86.00
76102;SHT30;64830;46.910;6.354;2023-12-20T02:00:23;4.93;86.22
76102;SHT30;64830;46.910;6.354;2023-12-20T02:02:52;4.89;86.11
76102;SHT30;64830;46.910;6.354;2023-12-20T02:05:18;4.89;85.98
76102;SHT30;64830;46.910;6.354;2023-12-20T02:07:44;4.88;86.36
76102;SHT30;64830;46.910;6.354;2023-12-20T02:10:09;4.86;87.40
76102;SHT30;64830;46.910;6.354;2023-12-20T02:12:35;4.85;86.36
76102;SHT30;64830;46.910;6.354;2023-12-20T02:15:01;4.83;86.21
76102;SHT30;64830;46.910;6.354;2023-12-20T02:17:27;4.82;86.75
76102;SHT30;64830;46.910;6.354;2023-12-20T02:19:53;4.83;86.76
76102;SHT30;64830;46.910;6.354;2023-12-20T02:22:18;4.85;86.47
76102;SHT30;64830;46.910;6.354;2023-12-20T02:24:43;4.85;86.56
76102;SHT30;64830;46.910;6.354;2023-12-20T02:27:09;4.83;86.59
76102;SHT30;64830;46.910;6.354;2023-12-20T02:29:35;4.86;87.00
76102;SHT30;64830;46.910;6.354;2023-12-20T02:32:00;4.88;86.58
76102;SHT30;64830;46.910;6.354;2023-12-20T02:34:26;4.86;86.89
76102;SHT30;64830;46.910;6.354;2023-12-20T02:36:51;4.89;86.63
76102;SHT30;64830;46.910;6.354;2023-12-20T02:39:17;4.89;87.12
76102;SHT30;64830;46.910;6.354;2023-12-20T02:41:43;4.89;86.65
76102;SHT30;64830;46.910;6.354;2023-12-20T02:44:08;4.93;86.51
76102;SHT30;64830;46.910;6.354;2023-12-20T02:46:34;4.93;86.86
76102;SHT30;64830;46.910;6.354;2023-12-20T02:48:59;4.95;86.41
76102;SHT30;64830;46.910;6.354;2023-12-20T02:51:25;4.96;86.99
76102;SHT30;64830;46.910;6.354;2023-12-20T02:53:50;4.92;88.11
76102;SHT30;64830;46.910;6.354;2023-12-20T02:56:16;4.90;87.28
76102;SHT30;64830;46.910;6.354;2023-12-20T02:58:41;4.90;87.05
76102;SHT30;64830;46.910;6.354;2023-12-20T03:01:06;4.89;87.04
76102;SHT30;64830;46.910;6.354;2023-12-20T03:03:32;4.92;87.14
76102;SHT30;64830;46.910;6.354;2023-12-20T03:05:57;4.90;87.26
76102;SHT30;64830;46.910;6.354;2023-12-20T03:08:23;4.92;87.55
76102;SHT30;64830;46.910;6.354;2023-12-20T03:10:48;4.89;87.87
76102;SHT30;64830;46.910;6.354;2023-12-20T03:13:14;4.86;87.51
76102;SHT30;64830;46.910;6.354;2023-12-20T03:15:39;4.88;87.37
76102;SHT30;64830;46.910;6.354;2023-12-20T03:18:05;4.86;87.49
76102;SHT30;64830;46.910;6.354;2023-12-20T03:20:30;4.88;87.37
76102;SHT30;64830;46.910;6.354;2023-12-20T03:23:02;4.89;87.15
76102;SHT30;64830;46.910;6.354;2023-12-20T03:25:28;4.90;87.34
76102;SHT30;64830;46.910;6.354;2023-12-20T03:27:53;4.90;87.30
76102;SHT30;64830;46.910;6.354;2023-12-20T03:30:19;4.89;87.68
76102;SHT30;64830;46.910;6.354;2023-12-20T03:32:45;4.88;87.31
76102;SHT30;64830;46.910;6.354;2023-12-20T03:35:10;4.86;87.41
76102;SHT30;64830;46.910;6.354;2023-12-20T03:37:36;4.86;87.33
76102;SHT30;64830;46.910;6.354;2023-12-20T03:40:02;4.90;87.22
76102;SHT30;64830;46.910;6.354;2023-12-20T03:42:27;4.90;87.44
76102;SHT30;64830;46.910;6.354;2023-12-20T03:44:53;4.89;87.73
76102;SHT30;64830;46.910;6.354;2023-12-20T03:47:18;4.88;87.67
76102;SHT30;64830;46.910;6.354;2023-12-20T03:49:44;4.86;88.08
76102;SHT30;64830;46.910;6.354;2023-12-20T03:52:09;4.82;87.74
76102;SHT30;64830;46.910;6.354;2023-12-20T03:54:35;4.82;87.90
76102;SHT30;64830;46.910;6.354;2023-12-20T03:57:01;4.83;87.66
76102;SHT30;64830;46.910;6.354;2023-12-20T03:59:26;4.81;88.02
76102;SHT30;64830;46.910;6.354;2023-12-20T04:01:51;4.82;88.07
76102;SHT30;64830;46.910;6.354;2023-12-20T04:04:17;4.78;87.92
76102;SHT30;64830;46.910;6.354;2023-12-20T04:06:42;4.78;88.44
76102;SHT30;64830;46.910;6.354;2023-12-20T04:09:08;4.75;88.12
76102;SHT30;64830;46.910;6.354;2023-12-20T04:11:37;4.75;88.08
76102;SHT30;64830;46.910;6.354;2023-12-20T04:14:02;4.75;88.07
76102;SHT30;64830;46.910;6.354;2023-12-20T04:16:30;4.76;88.41
76102;SHT30;64830;46.910;6.354;2023-12-20T04:18:55;4.78;88.27
76102;SHT30;64830;46.910;6.354;2023-12-20T04:21:20;4.73;88.25
76102;SHT30;64830;46.910;6.354;2023-12-20T04:23:46;4.69;88.11
76102;SHT30;64830;46.910;6.354;2023-12-20T04:26:11;4.65;88.08
76102;SHT30;64830;46.910;6.354;2023-12-20T04:28:36;4.65;87.98
76102;SHT30;64830;46.910;6.354;2023-12-20T04:31:02;4.64;88.00
76102;SHT30;64830;46.910;6.354;2023-12-20T04:33:27;4.65;87.85
76102;SHT30;64830;46.910;6.354;2023-12-20T04:35:53;4.68;87.73
76102;SHT30;64830;46.910;6.354;2023-12-20T04:38:18;4.69;87.61
76102;SHT30;64830;46.910;6.354;2023-12-20T04:40:44;4.71;87.44
76102;SHT30;64830;46.910;6.354;2023-12-20T04:43:09;4.76;87.36
76102;SHT30;64830;46.910;6.354;2023-12-20T04:45:34;4.78;87.26
76102;SHT30;64830;46.910;6.354;2023-12-20T04:48:01;4.79;87.29
76102;SHT30;64830;46.910;6.354;2023-12-20T04:50:27;4.76;87.22
76102;SHT30;64830;46.910;6.354;2023-12-20T04:52:52;4.75;87.39
76102;SHT30;64830;46.910;6.354;2023-12-20T04:55:18;4.73;87.27
76102;SHT30;64830;46.910;6.354;2023-12-20T04:57:43;4.71;87.07
76102;SHT30;64830;46.910;6.354;2023-12-20T05:00:09;4.71;87.11
76102;SHT30;64830;46.910;6.354;2023-12-20T05:02:36;4.75;87.12
76102;SHT30;64830;46.910;6.354;2023-12-20T05:05:01;4.75;87.05
76102;SHT30;64830;46.910;6.354;2023-12-20T05:07:27;4.76;86.95
76102;SHT30;64830;46.910;6.354;2023-12-20T05:09:52;4.78;86.88
76102;SHT30;64830;46.910;6.354;2023-12-20T05:12:17;4.78;87.00
76102;SHT30;64830;46.910;6.354;2023-12-20T05:14:43;4.78;86.88
76102;SHT30;64830;46.910;6.354;2023-12-20T05:17:08;4.76;86.94
76102;SHT30;64830;46.910;6.354;2023-12-20T05:19:33;4.72;87.51
76102;SHT30;64830;46.910;6.354;2023-12-20T05:22:02;4.68;87.56
76102;SHT30;64830;46.910;6.354;2023-12-20T05:24:27;4.62;87.84
76102;SHT30;64830;46.910;6.354;2023-12-20T05:26:53;4.62;87.73
76102;SHT30;64830;46.910;6.354;2023-12-20T05:29:19;4.61;87.61
76102;SHT30;64830;46.910;6.354;2023-12-20T05:31:44;4.67;87.64
76102;SHT30;64830;46.910;6.354;2023-12-20T05:34:09;4.64;87.70
76102;SHT30;64830;46.910;6.354;2023-12-20T05:36:36;4.65;87.69
76102;SHT30;64830;46.910;6.354;2023-12-20T05:39:01;4.67;87.79
76102;SHT30;64830;46.910;6.354;2023-12-20T05:41:26;4.69;87.76
76102;SHT30;64830;46.910;6.354;2023-12-20T05:43:52;4.68;87.65
76102;SHT30;64830;46.910;6.354;2023-12-20T05:46:17;4.69;87.75
76102;SHT30;64830;46.910;6.354;2023-12-20T05:48:42;4.69;87.91
76102;SHT30;64830;46.910;6.354;2023-12-20T05:51:11;4.64;88.21
76102;SHT30;64830;46.910;6.354;2023-12-20T05:53:36;4.60;88.32
76102;SHT30;64830;46.910;6.354;2023-12-20T05:56:02;4.58;88.21
76102;SHT30;64830;46.910;6.354;2023-12-20T05:58:27;4.58;88.11
76102;SHT30;64830;46.910;6.354;2023-12-20T06:00:54;4.60;88.39
76102;SHT30;64830;46.910;6.354;2023-12-20T06:03:22;4.55;88.22
76102;SHT30;64830;46.910;6.354;2023-12-20T06:05:48;4.54;88.35
76102;SHT30;64830;46.910;6.354;2023-12-20T06:08:14;4.54;88.22
76102;SHT30;64830;46.910;6.354;2023-12-20T06:10:39;4.57;88.52
76102;SHT30;64830;46.910;6.354;2023-12-20T06:13:05;4.53;88.51
76102;SHT30;64830;46.910;6.354;2023-12-20T06:15:32;4.51;88.47
76102;SHT30;64830;46.910;6.354;2023-12-20T06:17:57;4.51;88.72
76102;SHT30;64830;46.910;6.354;2023-12-20T06:20:23;4.50;88.55
76102;SHT30;64830;46.910;6.354;2023-12-20T06:22:48;4.51;88.50
76102;SHT30;64830;46.910;6.354;2023-12-20T06:25:14;4.54;88.39
76102;SHT30;64830;46.910;6.354;2023-12-20T06:27:39;4.53;88.49
76102;SHT30;64830;46.910;6.354;2023-12-20T06:30:06;4.53;88.37
76102;SHT30;64830;46.910;6.354;2023-12-20T06:32:34;4.51;88.68
76102;SHT30;64830;46.910;6.354;2023-12-20T06:34:59;4.53;88.42
76102;SHT30;64830;46.910;6.354;2023-12-20T06:37:25;4.51;88.49
76102;SHT30;64830;46.910;6.354;2023-12-20T06:39:50;4.53;88.57
76102;SHT30;64830;46.910;6.354;2023-12-20T06:42:16;4.51;88.41
76102;SHT30;64830;46.910;6.354;2023-12-20T06:44:41;4.53;88.42
76102;SHT30;64830;46.910;6.354;2023-12-20T06:47:07;4.54;88.40
76102;SHT30;64830;46.910;6.354;2023-12-20T06:49:32;4.55;88.40
76102;SHT30;64830;46.910;6.354;2023-12-20T06:51:57;4.48;88.50
76102;SHT30;64830;46.910;6.354;2023-12-20T06:54:23;4.53;88.49
76102;SHT30;64830;46.910;6.354;2023-12-20T06:56:48;4.51;88.40
76102;SHT30;64830;46.910;6.354;2023-12-20T06:59:14;4.51;88.58
76102;SHT30;64830;46.910;6.354;2023-12-20T07:01:39;4.50;88.47
76102;SHT30;64830;46.910;6.354;2023-12-20T07:04:04;4.51;88.53
76102;SHT30;64830;46.910;6.354;2023-12-20T07:06:30;4.48;88.47
76102;SHT30;64830;46.910;6.354;2023-12-20T07:08:55;4.53;88.35
76102;SHT30;64830;46.910;6.354;2023-12-20T07:11:20;4.53;88.49
76102;SHT30;64830;46.910;6.354;2023-12-20T07:13:46;4.51;88.51
76102;SHT30;64830;46.910;6.354;2023-12-20T07:16:11;4.51;88.69
76102;SHT30;64830;46.910;6.354;2023-12-20T07:18:37;4.45;88.91
76102;SHT30;64830;46.910;6.354;2023-12-20T07:21:03;4.40;89.05
76102;SHT30;64830;46.910;6.354;2023-12-20T07:23:28;4.38;88.94
76102;SHT30;64830;46.910;6.354;2023-12-20T07:25:54;4.38;88.90
76102;SHT30;64830;46.910;6.354;2023-12-20T07:28:19;4.38;88.84
76102;SHT30;64830;46.910;6.354;2023-12-20T07:30:45;4.37;89.08
76102;SHT30;64830;46.910;6.354;2023-12-20T07:33:11;4.37;89.02
76102;SHT30;64830;46.910;6.354;2023-12-20T07:35:37;4.36;89.01
76102;SHT30;64830;46.910;6.354;2023-12-20T07:38:03;4.37;89.10
76102;SHT30;64830;46.910;6.354;2023-12-20T07:40:28;4.37;89.17
76102;SHT30;64830;46.910;6.354;2023-12-20T07:42:54;4.40;89.05
76102;SHT30;64830;46.910;6.354;2023-12-20T07:45:19;4.40;89.12
76102;SHT30;64830;46.910;6.354;2023-12-20T07:47:45;4.43;89.13
76102;SHT30;64830;46.910;6.354;2023-12-20T07:50:10;4.38;89.13
76102;SHT30;64830;46.910;6.354;2023-12-20T07:52:36;4.41;89.14
76102;SHT30;64830;46.910;6.354;2023-12-20T07:55:01;4.44;89.12
76102;SHT30;64830;46.910;6.354;2023-12-20T07:57:30;4.44;89.18
76102;SHT30;64830;46.910;6.354;2023-12-20T07:59:55;4.43;89.22
76102;SHT30;64830;46.910;6.354;2023-12-20T08:02:21;4.38;89.25
76102;SHT30;64830;46.910;6.354;2023-12-20T08:04:46;4.41;89.12
76102;SHT30;64830;46.910;6.354;2023-12-20T08:07:12;4.44;89.15
76102;SHT30;64830;46.910;6.354;2023-12-20T08:09:37;4.43;89.41
76102;SHT30;64830;46.910;6.354;2023-12-20T08:12:03;4.41;89.29
76102;SHT30;64830;46.910;6.354;2023-12-20T08:14:28;4.38;89.27
76102;SHT30;64830;46.910;6.354;2023-12-20T08:16:54;4.34;89.36
76102;SHT30;64830;46.910;6.354;2023-12-20T08:19:19;4.34;89.47
76102;SHT30;64830;46.910;6.354;2023-12-20T08:21:44;4.30;89.36
76102;SHT30;64830;46.910;6.354;2023-12-20T08:24:10;4.29;89.40
76102;SHT30;64830;46.910;6.354;2023-12-20T08:26:35;4.27;89.01
76102;SHT30;64830;46.910;6.354;2023-12-20T08:29:01;4.26;89.09
76102;SHT30;64830;46.910;6.354;2023-12-20T08:31:26;4.26;89.12
76102;SHT30;64830;46.910;6.354;2023-12-20T08:33:52;4.29;88.89
76102;SHT30;64830;46.910;6.354;2023-12-20T08:36:19;4.24;88.68
76102;SHT30;64830;46.910;6.354;2023-12-20T08:38:46;4.23;88.25
76102;SHT30;64830;46.910;6.354;2023-12-20T08:41:12;4.19;88.63
76102;SHT30;64830;46.910;6.354;2023-12-20T08:43:37;4.14;88.90
76102;SHT30;64830;46.910;6.354;2023-12-20T08:46:05;4.14;88.96
76102;SHT30;64830;46.910;6.354;2023-12-20T08:48:31;4.13;88.92
76102;SHT30;64830;46.910;6.354;2023-12-20T08:50:56;4.10;88.65
76102;SHT30;64830;46.910;6.354;2023-12-20T08:53:22;4.09;88.94
76102;SHT30;64830;46.910;6.354;2023-12-20T08:55:47;4.06;88.63
76102;SHT30;64830;46.910;6.354;2023-12-20T08:58:13;4.07;88.97
76102;SHT30;64830;46.910;6.354;2023-12-20T09:00:39;4.06;88.69
76102;SHT30;64830;46.910;6.354;2023-12-20T09:03:05;4.11;88.75
76102;SHT30;64830;46.910;6.354;2023-12-20T09:05:30;4.14;88.79
76102;SHT30;64830;46.910;6.354;2023-12-20T09:07:56;4.16;88.55
76102;SHT30;64830;46.910;6.354;2023-12-20T09:10:21;4.20;88.55
76102;SHT30;64830;46.910;6.354;2023-12-20T09:12:52;4.20;88.54
76102;SHT30;64830;46.910;6.354;2023-12-20T09:15:22;4.20;88.29
76102;SHT30;64830;46.910;6.354;2023-12-20T09:17:48;4.21;88.22
76102;SHT30;64830;46.910;6.354;2023-12-20T09:20:13;4.26;88.12
76102;SHT30;64830;46.910;6.354;2023-12-20T09:22:39;4.24;87.99
76102;SHT30;64830;46.910;6.354;2023-12-20T09:25:05;4.20;88.04
76102;SHT30;64830;46.910;6.354;2023-12-20T09:27:30;4.19;88.26
76102;SHT30;64830;46.910;6.354;2023-12-20T09:29:56;4.17;88.46
76102;SHT30;64830;46.910;6.354;2023-12-20T09:32:21;4.16;88.38
76102;SHT30;64830;46.910;6.354;2023-12-20T09:34:47;4.16;88.74
76102;SHT30;64830;46.910;6.354;2023-12-20T09:37:13;4.17;88.64
76102;SHT30;64830;46.910;6.354;2023-12-20T09:39:38;4.17;88.81
76102;SHT30;64830;46.910;6.354;2023-12-20T09:42:04;4.17;88.99
76102;SHT30;64830;46.910;6.354;2023-12-20T09:44:30;4.14;89.20
76102;SHT30;64830;46.910;6.354;2023-12-20T09:46:56;4.11;88.58
76102;SHT30;64830;46.910;6.354;2023-12-20T09:49:22;4.05;88.01
76102;SHT30;64830;46.910;6.354;2023-12-20T09:51:50;3.99;88.16
76102;SHT30;64830;46.910;6.354;2023-12-20T09:54:17;4.00;87.95
76102;SHT30;64830;46.910;6.354;2023-12-20T09:56:42;4.00;87.73
76102;SHT30;64830;46.910;6.354;2023-12-20T09:59:08;3.96;87.59
76102;SHT30;64830;46.910;6.354;2023-12-20T10:01:34;3.95;87.71
76102;SHT30;64830;46.910;6.354;2023-12-20T10:04:00;3.96;87.51
76102;SHT30;64830;46.910;6.354;2023-12-20T10:06:27;3.92;87.50
76102;SHT30;64830;46.910;6.354;2023-12-20T10:08:53;3.93;87.18
76102;SHT30;64830;46.910;6.354;2023-12-20T10:11:18;3.86;87.43
76102;SHT30;64830;46.910;6.354;2023-12-20T10:13:47;3.89;87.24
76102;SHT30;64830;46.910;6.354;2023-12-20T10:16:13;3.86;87.04
76102;SHT30;64830;46.910;6.354;2023-12-20T10:18:39;3.83;86.86
76102;SHT30;64830;46.910;6.354;2023-12-20T10:21:04;3.75;86.89
76102;SHT30;64830;46.910;6.354;2023-12-20T10:23:31;3.68;87.09
76102;SHT30;64830;46.910;6.354;2023-12-20T10:25:57;3.71;87.24
76102;SHT30;64830;46.910;6.354;2023-12-20T10:28:23;3.74;87.49
76102;SHT30;64830;46.910;6.354;2023-12-20T10:30:53;3.79;87.49
76102;SHT30;64830;46.910;6.354;2023-12-20T10:33:25;3.85;87.32
76102;SHT30;64830;46.910;6.354;2023-12-20T10:35:54;3.91;87.55
76102;SHT30;64830;46.910;6.354;2023-12-20T10:38:20;3.96;87.47
76102;SHT30;64830;46.910;6.354;2023-12-20T10:40:46;4.03;87.36
76102;SHT30;64830;46.910;6.354;2023-12-20T10:43:11;4.09;87.44
76102;SHT30;64830;46.910;6.354;2023-12-20T10:45:37;4.09;86.81
76102;SHT30;64830;46.910;6.354;2023-12-20T10:48:03;4.10;86.53
76102;SHT30;64830;46.910;6.354;2023-12-20T10:50:31;4.10;86.59
76102;SHT30;64830;46.910;6.354;2023-12-20T10:52:57;4.10;86.28
76102;SHT30;64830;46.910;6.354;2023-12-20T10:55:23;4.10;86.41
76102;SHT30;64830;46.910;6.354;2023-12-20T10:57:54;4.11;86.41
76102;SHT30;64830;46.910;6.354;2023-12-20T11:00:25;4.20;86.47
76102;SHT30;64830;46.910;6.354;2023-12-20T11:02:51;4.27;86.80
76102;SHT30;64830;46.910;6.354;2023-12-20T11:05:41;4.40;86.20
76102;SHT30;64830;46.910;6.354;2023-12-20T11:08:22;4.47;86.43
76102;SHT30;64830;46.910;6.354;2023-12-20T11:11:21;4.55;85.81
76102;SHT30;64830;46.910;6.354;2023-12-20T11:13:58;4.60;85.34
76102;SHT30;64830;46.910;6.354;2023-12-20T11:16:25;4.61;84.77
76102;SHT30;64830;46.910;6.354;2023-12-20T11:18:51;4.64;84.58
76102;SHT30;64830;46.910;6.354;2023-12-20T11:21:16;4.60;83.35
76102;SHT30;64830;46.910;6.354;2023-12-20T11:23:42;4.54;83.34
76102;SHT30;64830;46.910;6.354;2023-12-20T11:26:08;4.44;82.61
76102;SHT30;64830;46.910;6.354;2023-12-20T11:28:33;4.40;83.81
76102;SHT30;64830;46.910;6.354;2023-12-20T11:31:01;4.36;83.39
76102;SHT30;64830;46.910;6.354;2023-12-20T11:33:37;4.32;83.57
76102;SHT30;64830;46.910;6.354;2023-12-20T11:36:06;4.27;83.84
76102;SHT30;64830;46.910;6.354;2023-12-20T11:38:37;4.23;84.08
76102;SHT30;64830;46.910;6.354;2023-12-20T11:41:05;4.20;83.60
76102;SHT30;64830;46.910;6.354;2023-12-20T11:46:05;4.10;84.80
76102;SHT30;64830;46.910;6.354;2023-12-20T11:48:32;4.09;83.48
76102;SHT30;64830;46.910;6.354;2023-12-20T11:50:58;4.06;84.59
76102;SHT30;64830;46.910;6.354;2023-12-20T11:53:24;4.09;84.51
76102;SHT30;64830;46.910;6.354;2023-12-20T11:55:50;4.10;84.38
76102;SHT30;64830;46.910;6.354;2023-12-20T11:58:15;4.11;84.43
76102;SHT30;64830;46.910;6.354;2023-12-20T12:00:42;4.14;83.92
76102;SHT30;64830;46.910;6.354;2023-12-20T12:03:08;4.16;84.12
76102;SHT30;64830;46.910;6.354;2023-12-20T12:05:34;4.16;83.90
76102;SHT30;64830;46.910;6.354;2023-12-20T12:07:59;4.11;82.65
76102;SHT30;64830;46.910;6.354;2023-12-20T12:10:25;4.05;82.07
76102;SHT30;64830;46.910;6.354;2023-12-20T12:12:50;4.02;82.87
76102;SHT30;64830;46.910;6.354;2023-12-20T12:15:16;4.00;82.83
76102;SHT30;64830;46.910;6.354;2023-12-20T12:17:41;3.99;81.93
76102;SHT30;64830;46.910;6.354;2023-12-20T12:20:07;3.98;83.30
76102;SHT30;64830;46.910;6.354;2023-12-20T12:22:34;3.96;82.96
76102;SHT30;64830;46.910;6.354;2023-12-20T12:25:09;3.95;83.25
76102;SHT30;64830;46.910;6.354;2023-12-20T12:27:36;4.05;82.85
76102;SHT30;64830;46.910;6.354;2023-12-20T12:30:04;4.05;80.80
76102;SHT30;64830;46.910;6.354;2023-12-20T12:32:32;4.05;81.93
76102;SHT30;64830;46.910;6.354;2023-12-20T12:34:58;4.05;82.06
76102;SHT30;64830;46.910;6.354;2023-12-20T12:37:23;4.07;81.12
76102;SHT30;64830;46.910;6.354;2023-12-20T12:39:54;3.96;81.84
76102;SHT30;64830;46.910;6.354;2023-12-20T12:42:20;3.91;82.68
76102;SHT30;64830;46.910;6.354;2023-12-20T12:44:46;3.79;82.05
76102;SHT30;64830;46.910;6.354;2023-12-20T12:47:12;3.68;82.52
76102;SHT30;64830;46.910;6.354;2023-12-20T12:49:37;3.58;82.24
76102;SHT30;64830;46.910;6.354;2023-12-20T12:52:03;3.54;82.44
76102;SHT30;64830;46.910;6.354;2023-12-20T12:54:28;3.53;82.83
76102;SHT30;64830;46.910;6.354;2023-12-20T12:56:54;3.54;83.06
76102;SHT30;64830;46.910;6.354;2023-12-20T12:59:19;3.58;82.80
76102;SHT30;64830;46.910;6.354;2023-12-20T13:01:44;3.58;82.50
76102;SHT30;64830;46.910;6.354;2023-12-20T13:04:10;3.61;83.03
76102;SHT30;64830;46.910;6.354;2023-12-20T13:06:39;3.64;82.90
76102;SHT30;64830;46.910;6.354;2023-12-20T13:09:06;3.64;80.79
76102;SHT30;64830;46.910;6.354;2023-12-20T13:11:31;3.63;80.52
76102;SHT30;64830;46.910;6.354;2023-12-20T13:13:57;3.57;78.46
76102;SHT30;64830;46.910;6.354;2023-12-20T13:16:23;3.54;78.35
76102;SHT30;64830;46.910;6.354;2023-12-20T13:18:49;3.51;78.34
76102;SHT30;64830;46.910;6.354;2023-12-20T13:21:15;3.51;78.70
76102;SHT30;64830;46.910;6.354;2023-12-20T13:23:41;3.50;77.83
76102;SHT30;64830;46.910;6.354;2023-12-20T13:26:07;3.51;78.19
76102;SHT30;64830;46.910;6.354;2023-12-20T13:28:32;3.53;78.40
76102;SHT30;64830;46.910;6.354;2023-12-20T13:30:58;3.50;77.42
76102;SHT30;64830;46.910;6.354;2023-12-20T13:33:23;3.47;77.40
76102;SHT30;64830;46.910;6.354;2023-12-20T13:35:48;3.47;77.42
76102;SHT30;64830;46.910;6.354;2023-12-20T13:38:14;3.47;78.39
76102;SHT30;64830;46.910;6.354;2023-12-20T13:40:40;3.44;77.92
76102;SHT30;64830;46.910;6.354;2023-12-20T13:43:05;3.41;78.03
76102;SHT30;64830;46.910;6.354;2023-12-20T13:45:31;3.38;78.61
76102;SHT30;64830;46.910;6.354;2023-12-20T13:47:57;3.37;78.98
76102;SHT30;64830;46.910;6.354;2023-12-20T13:50:24;3.41;79.58
76102;SHT30;64830;46.910;6.354;2023-12-20T13:52:49;3.46;80.22
76102;SHT30;64830;46.910;6.354;2023-12-20T13:55:14;3.46;79.78
76102;SHT30;64830;46.910;6.354;2023-12-20T13:57:40;3.44;80.57
76102;SHT30;64830;46.910;6.354;2023-12-20T14:00:07;3.53;81.17
76102;SHT30;64830;46.910;6.354;2023-12-20T14:02:40;3.60;80.78
76102;SHT30;64830;46.910;6.354;2023-12-20T14:05:05;3.60;79.15
76102;SHT30;64830;46.910;6.354;2023-12-20T14:07:31;3.60;79.82
76102;SHT30;64830;46.910;6.354;2023-12-20T14:09:57;3.57;79.21
76102;SHT30;64830;46.910;6.354;2023-12-20T14:12:22;3.54;77.96
76102;SHT30;64830;46.910;6.354;2023-12-20T14:14:48;3.46;79.05
76102;SHT30;64830;46.910;6.354;2023-12-20T14:17:13;3.41;80.33
76102;SHT30;64830;46.910;6.354;2023-12-20T14:19:39;3.44;80.23
76102;SHT30;64830;46.910;6.354;2023-12-20T14:22:04;3.47;80.21
76102;SHT30;64830;46.910;6.354;2023-12-20T14:24:30;3.44;79.91
76102;SHT30;64830;46.910;6.354;2023-12-20T14:26:55;3.47;80.56
76102;SHT30;64830;46.910;6.354;2023-12-20T14:29:21;3.44;80.26
76102;SHT30;64830;46.910;6.354;2023-12-20T14:31:46;3.43;80.55
76102;SHT30;64830;46.910;6.354;2023-12-20T14:34:12;3.41;80.42
76102;SHT30;64830;46.910;6.354;2023-12-20T14:36:37;3.44;80.65
76102;SHT30;64830;46.910;6.354;2023-12-20T14:39:03;3.44;81.08
76102;SHT30;64830;46.910;6.354;2023-12-20T14:41:29;3.44;80.51
76102;SHT30;64830;46.910;6.354;2023-12-20T14:43:55;3.44;80.56
76102;SHT30;64830;46.910;6.354;2023-12-20T14:46:20;3.41;80.71
76102;SHT30;64830;46.910;6.354;2023-12-20T14:48:46;3.40;81.05
76102;SHT30;64830;46.910;6.354;2023-12-20T14:51:11;3.43;81.38
76102;SHT30;64830;46.910;6.354;2023-12-20T14:53:38;3.46;81.79
76102;SHT30;64830;46.910;6.354;2023-12-20T14:56:06;3.48;81.65
76102;SHT30;64830;46.910;6.354;2023-12-20T14:58:32;3.46;81.42
76102;SHT30;64830;46.910;6.354;2023-12-20T15:00:58;3.43;82.11
76102;SHT30;64830;46.910;6.354;2023-12-20T15:03:24;3.37;82.44
76102;SHT30;64830;46.910;6.354;2023-12-20T15:05:49;3.31;82.27
76102;SHT30;64830;46.910;6.354;2023-12-20T15:08:15;3.24;82.25
76102;SHT30;64830;46.910;6.354;2023-12-20T15:10:41;3.17;82.52
76102;SHT30;64830;46.910;6.354;2023-12-20T15:13:06;3.12;82.73
76102;SHT30;64830;46.910;6.354;2023-12-20T15:15:32;3.10;83.19
76102;SHT30;64830;46.910;6.354;2023-12-20T15:18:02;3.03;83.02
76102;SHT30;64830;46.910;6.354;2023-12-20T15:20:30;3.00;83.33
76102;SHT30;64830;46.910;6.354;2023-12-20T15:22:58;3.03;83.66
76102;SHT30;64830;46.910;6.354;2023-12-20T15:25:29;3.05;83.63
76102;SHT30;64830;46.910;6.354;2023-12-20T15:27:55;3.10;83.78
76102;SHT30;64830;46.910;6.354;2023-12-20T15:30:21;3.13;83.50
76102;SHT30;64830;46.910;6.354;2023-12-20T15:32:47;3.17;83.47
76102;SHT30;64830;46.910;6.354;2023-12-20T15:35:12;3.22;82.88
76102;SHT30;64830;46.910;6.354;2023-12-20T15:37:38;3.19;83.08
76102;SHT30;64830;46.910;6.354;2023-12-20T15:40:07;3.19;82.43